Time;durP1;ratioP1;P1;durP2;ratioP2;P2;SDS_P1;SDS_P2;PMS_P1;PMS_P2;Temp;Humidity;BMP_temperature;BMP_pressure;BME280_temperature;BME280_humidity;BME280_pressure;Samples;Min_cycle;Max_cycle;Signal;HPM_P1;HPM_P2
2024/04/10 00:02:16;;;;;;;2.83;0.80;;;10.30;81.60;;;;;;5095979;28;20108;-73
2024/04/10 00:04:45;;;;;;;2.25;0.63;;;10.20;81.50;;;;;;5114170;28;20489;-72
2024/04/10 00:16:55;;;;;;;1.35;0.60;;;10.00;81.70;;;;;;5113747;28;20056;-72
2024/04/10 00:19:20;;;;;;;3.20;0.80;;;10.10;81.80;;;;;;5095298;28;20463;-72
2024/04/10 00:21:47;;;;;;;2.35;0.52;;;10.10;81.90;;;;;;5113685;28;20118;-72
2024/04/10 00:24:14;;;;;;;1.30;0.45;;;10.00;81.80;;;;;;5113842;28;20069;-72
2024/04/10 00:26:39;;;;;;;2.13;0.52;;;10.00;81.90;;;;;;5113596;28;20089;-72
2024/04/10 00:29:05;;;;;;;0.63;0.50;;;10.00;82.00;;;;;;5093885;28;20431;-72
2024/04/10 00:31:31;;;;;;;1.20;0.50;;;10.00;82.00;;;;;;5113702;28;20066;-72
2024/04/10 00:33:56;;;;;;;0.75;0.70;;;9.90;82.00;;;;;;5114060;28;20068;-73
2024/04/10 00:36:22;;;;;;;1.67;0.70;;;9.80;82.10;;;;;;5114171;28;20036;-73
2024/04/10 00:38:48;;;;;;;3.22;0.65;;;9.90;82.30;;;;;;5113375;28;20496;-73
2024/04/10 00:41:15;;;;;;;1.40;0.50;;;9.90;82.30;;;;;;5113948;28;20043;-72
2024/04/10 00:43:40;;;;;;;1.10;0.57;;;9.80;82.40;;;;;;5095655;28;20048;-72
2024/04/10 00:46:14;;;;;;;2.33;0.80;;;9.80;82.40;;;;;;5113898;28;20040;-72
2024/04/10 00:48:40;;;;;;;1.75;0.70;;;9.80;82.50;;;;;;5095748;28;20040;-72
2024/04/10 00:51:18;;;;;;;1.23;0.70;;;9.70;82.40;;;;;;5094941;28;20039;-72
2024/04/10 00:53:44;;;;;;;1.95;0.60;;;9.70;82.50;;;;;;5094102;28;20393;-73
2024/04/10 00:56:10;;;;;;;2.03;0.70;;;9.70;82.40;;;;;;5113838;28;20071;-73
2024/04/10 00:58:37;;;;;;;0.38;0.30;;;9.70;82.40;;;;;;5078953;28;20035;-72
2024/04/10 01:01:04;;;;;;;1.15;0.47;;;9.70;82.40;;;;;;5094841;28;20050;-72
2024/04/10 01:03:30;;;;;;;1.42;0.50;;;9.70;82.50;;;;;;5095002;28;20044;-73
2024/04/10 01:05:58;;;;;;;0.75;0.45;;;9.60;82.50;;;;;;5113390;28;20047;-72
2024/04/10 01:08:25;;;;;;;1.95;0.60;;;9.60;82.60;;;;;;5095067;28;20089;-73
2024/04/10 01:10:51;;;;;;;1.80;0.55;;;9.60;82.70;;;;;;5113073;28;20489;-72
2024/04/10 01:13:18;;;;;;;0.40;0.38;;;9.60;82.70;;;;;;5113204;28;20050;-72
2024/04/10 01:15:44;;;;;;;1.13;0.40;;;9.60;82.70;;;;;;5113442;28;20082;-73
2024/04/10 01:18:10;;;;;;;1.50;0.50;;;9.60;83.00;;;;;;5095191;28;20075;-72
2024/04/10 01:20:35;;;;;;;2.25;0.65;;;9.60;82.80;;;;;;5094387;28;20063;-73
2024/04/10 01:23:03;;;;;;;1.20;0.60;;;9.60;82.80;;;;;;5077453;28;20076;-73
2024/04/10 01:25:28;;;;;;;1.38;0.60;;;9.50;82.70;;;;;;5094836;28;20050;-73
2024/04/10 01:27:54;;;;;;;1.58;0.43;;;9.60;82.80;;;;;;5112527;28;20044;-72
2024/04/10 01:30:20;;;;;;;0.50;0.47;;;9.60;82.80;;;;;;5112764;28;20173;-73
2024/04/10 01:32:46;;;;;;;2.78;0.70;;;9.60;82.70;;;;;;5112702;28;20428;-73
2024/04/10 01:35:12;;;;;;;1.52;0.75;;;9.60;82.70;;;;;;5094618;28;20126;-73
2024/04/10 01:37:38;;;;;;;2.95;0.85;;;9.70;82.70;;;;;;5094461;28;20048;-74
2024/04/10 01:40:04;;;;;;;2.45;0.80;;;9.70;82.60;;;;;;5076989;28;20041;-74
2024/04/10 01:42:30;;;;;;;2.17;0.73;;;9.60;82.50;;;;;;5094296;28;20042;-74
2024/04/10 01:44:56;;;;;;;1.35;0.60;;;9.60;82.60;;;;;;5113001;28;20040;-74
2024/04/10 01:47:22;;;;;;;0.68;0.50;;;9.60;82.80;;;;;;5112890;28;20060;-74
2024/04/10 01:49:50;;;;;;;1.50;0.70;;;9.60;82.90;;;;;;5094397;28;20123;-74
2024/04/10 01:52:15;;;;;;;2.05;0.80;;;9.60;83.00;;;;;;5110546;28;20400;-74
2024/04/10 01:54:41;;;;;;;1.20;0.57;;;9.60;83.10;;;;;;5112551;28;20126;-74
2024/04/10 01:57:07;;;;;;;0.90;0.38;;;9.60;83.20;;;;;;5112519;28;20409;-74
2024/04/10 01:59:33;;;;;;;0.50;0.40;;;9.50;83.20;;;;;;5094634;28;20450;-74
2024/04/10 02:01:59;;;;;;;0.60;0.40;;;9.60;83.30;;;;;;5112005;28;20044;-74
2024/04/10 02:04:25;;;;;;;0.85;0.60;;;9.50;83.30;;;;;;5112686;28;20039;-74
2024/04/10 02:06:50;;;;;;;0.57;0.40;;;9.60;83.40;;;;;;5112078;28;20100;-75
2024/04/10 02:09:16;;;;;;;1.17;0.50;;;9.60;83.40;;;;;;5094253;28;20040;-75
2024/04/10 02:11:42;;;;;;;0.65;0.40;;;9.60;83.50;;;;;;5112372;28;20438;-74
2024/04/10 02:14:07;;;;;;;1.70;0.50;;;9.60;83.50;;;;;;5093657;28;20035;-75
2024/04/10 02:16:34;;;;;;;0.75;0.40;;;9.60;83.60;;;;;;5093931;28;20493;-75
2024/04/10 02:18:59;;;;;;;0.70;0.50;;;9.60;83.60;;;;;;5076967;28;20149;-74
2024/04/10 02:21:25;;;;;;;1.08;0.68;;;9.60;83.60;;;;;;5094278;28;20071;-75
2024/04/10 02:23:51;;;;;;;2.55;0.50;;;9.60;83.70;;;;;;5094081;28;20484;-74
2024/04/10 02:26:17;;;;;;;0.43;0.43;;;9.70;83.80;;;;;;5111933;28;20036;-75
2024/04/10 02:28:43;;;;;;;4.07;0.60;;;9.60;83.70;;;;;;5111905;28;20405;-74
2024/04/10 02:31:09;;;;;;;0.45;0.43;;;9.60;83.70;;;;;;5060306;28;20145;-75
2024/04/10 02:33:38;;;;;;;0.60;0.60;;;9.60;83.80;;;;;;5093765;28;20069;-74
2024/04/10 02:36:05;;;;;;;0.60;0.50;;;9.60;83.90;;;;;;5112143;28;20421;-74
2024/04/10 02:38:33;;;;;;;0.90;0.50;;;9.60;83.90;;;;;;5112015;28;20118;-75
2024/04/10 02:40:59;;;;;;;1.08;0.50;;;9.60;83.90;;;;;;5111645;28;20052;-74
2024/04/10 02:43:24;;;;;;;0.60;0.40;;;9.60;83.90;;;;;;5111773;28;20142;-74
2024/04/10 02:45:56;;;;;;;1.00;0.47;;;9.60;84.00;;;;;;5111894;28;20118;-75
2024/04/10 02:48:22;;;;;;;0.98;0.60;;;9.60;84.10;;;;;;5094352;28;20036;-75
2024/04/10 02:50:48;;;;;;;0.47;0.47;;;9.70;84.10;;;;;;5093445;28;20040;-74
2024/04/10 02:53:14;;;;;;;0.40;0.40;;;9.70;84.10;;;;;;5097051;28;20469;-74
2024/04/10 02:55:42;;;;;;;2.55;0.60;;;9.70;84.20;;;;;;5115588;28;20500;-75
2024/04/10 02:58:08;;;;;;;1.13;0.50;;;9.70;84.20;;;;;;5097065;28;20497;-74
2024/04/10 03:00:35;;;;;;;1.52;0.60;;;9.60;84.20;;;;;;5096744;28;20088;-74
2024/04/10 03:03:01;;;;;;;2.05;0.52;;;9.70;84.30;;;;;;5096352;28;20052;-75
2024/04/10 03:05:27;;;;;;;1.40;0.73;;;9.70;84.30;;;;;;5114943;28;20032;-74
2024/04/10 03:07:53;;;;;;;1.50;0.63;;;9.60;84.30;;;;;;5096614;28;20046;-74
2024/04/10 03:10:19;;;;;;;0.85;0.60;;;9.70;84.40;;;;;;5080057;28;20047;-74
2024/04/10 03:12:45;;;;;;;1.00;0.57;;;9.70;84.50;;;;;;5096666;28;20405;-74
2024/04/10 03:15:11;;;;;;;0.85;0.40;;;9.60;84.40;;;;;;5115108;28;20051;-74
2024/04/10 03:17:36;;;;;;;0.43;0.43;;;9.60;84.40;;;;;;5114794;28;20040;-74
2024/04/10 03:20:03;;;;;;;1.00;0.60;;;9.60;84.40;;;;;;5079595;28;20043;-74
2024/04/10 03:22:29;;;;;;;0.93;0.50;;;9.60;84.50;;;;;;5096365;28;20032;-74
2024/04/10 03:24:54;;;;;;;0.73;0.50;;;9.60;85.10;;;;;;5114736;28;20085;-74
2024/04/10 03:27:20;;;;;;;0.35;0.30;;;9.60;84.50;;;;;;5114840;28;20036;-75
2024/04/10 03:29:45;;;;;;;0.55;0.40;;;9.70;84.60;;;;;;5096442;28;20039;-74
2024/04/10 03:32:11;;;;;;;1.48;0.60;;;9.70;84.60;;;;;;5115264;28;20070;-74
2024/04/10 03:34:37;;;;;;;1.77;0.60;;;9.70;84.60;;;;;;5114409;28;20389;-74
2024/04/10 03:37:04;;;;;;;0.32;0.32;;;9.70;84.60;;;;;;5096037;28;20130;-74
2024/04/10 03:39:31;;;;;;;0.93;0.50;;;9.70;84.60;;;;;;5114835;28;20044;-74
2024/04/10 03:41:57;;;;;;;0.75;0.55;;;9.60;84.60;;;;;;5096775;28;20088;-74
2024/04/10 03:44:23;;;;;;;1.08;0.50;;;9.70;84.60;;;;;;5114573;28;20127;-74
2024/04/10 03:46:48;;;;;;;1.00;0.50;;;9.80;84.70;;;;;;5114356;28;20039;-74
2024/04/10 03:49:14;;;;;;;0.55;0.40;;;9.70;84.70;;;;;;5114440;28;20039;-74
2024/04/10 03:51:40;;;;;;;1.17;0.60;;;9.70;84.70;;;;;;5096248;28;20130;-74
2024/04/10 03:54:05;;;;;;;0.40;0.40;;;9.70;84.70;;;;;;5114138;28;20122;-74
2024/04/10 03:56:31;;;;;;;0.75;0.57;;;9.70;84.70;;;;;;5114163;28;20139;-74
2024/04/10 03:58:56;;;;;;;0.80;0.57;;;9.70;84.70;;;;;;5114250;28;20131;-74
2024/04/10 04:01:22;;;;;;;1.02;0.60;;;9.70;84.80;;;;;;5113827;28;20040;-74
2024/04/10 04:03:48;;;;;;;0.60;0.50;;;9.70;84.80;;;;;;5078779;28;20051;-74
2024/04/10 04:06:14;;;;;;;0.57;0.32;;;9.70;84.80;;;;;;5114141;28;20059;-74
2024/04/10 04:08:41;;;;;;;0.95;0.55;;;9.70;84.80;;;;;;5095989;28;20082;-74
2024/04/10 04:11:06;;;;;;;2.90;0.52;;;9.70;84.80;;;;;;5095825;28;20035;-74
2024/04/10 04:13:32;;;;;;;1.23;0.70;;;9.70;84.90;;;;;;5096163;28;20133;-74
2024/04/10 04:15:58;;;;;;;0.95;0.57;;;9.70;84.90;;;;;;5114295;28;20485;-74
2024/04/10 04:18:24;;;;;;;2.35;0.50;;;9.70;84.90;;;;;;5114684;28;20548;-74
2024/04/10 04:20:50;;;;;;;0.73;0.57;;;9.70;84.90;;;;;;5114940;28;20074;-75
2024/04/10 04:23:16;;;;;;;1.20;0.50;;;9.70;84.90;;;;;;5078997;28;20123;-74
2024/04/10 04:25:42;;;;;;;1.40;0.65;;;9.60;84.80;;;;;;5095790;28;20066;-74
2024/04/10 04:28:08;;;;;;;0.60;0.52;;;9.70;84.90;;;;;;5113777;28;20046;-74
2024/04/10 04:30:34;;;;;;;0.98;0.45;;;9.70;84.90;;;;;;5095862;28;20031;-74
2024/04/10 04:33:01;;;;;;;0.60;0.55;;;9.80;85.10;;;;;;5095595;28;20050;-74
2024/04/10 04:35:26;;;;;;;2.08;0.70;;;9.70;85.00;;;;;;5114240;28;20061;-73
2024/04/10 04:37:57;;;;;;;1.73;0.80;;;9.70;85.00;;;;;;5078729;28;20040;-74
2024/04/10 04:40:22;;;;;;;0.85;0.47;;;9.60;85.00;;;;;;5113461;28;20046;-74
2024/04/10 04:42:48;;;;;;;1.33;0.65;;;9.60;85.00;;;;;;5095667;28;20052;-74
2024/04/10 04:45:14;;;;;;;0.90;0.50;;;9.60;85.00;;;;;;5114320;28;20031;-74
2024/04/10 04:47:40;;;;;;;1.42;0.40;;;9.60;85.20;;;;;;5095507;28;20585;-74
2024/04/10 04:50:08;;;;;;;1.67;0.43;;;9.60;85.10;;;;;;5113932;28;20548;-74
2024/04/10 04:52:34;;;;;;;0.60;0.40;;;9.60;85.20;;;;;;5113598;28;20059;-74
2024/04/10 04:55:00;;;;;;;0.50;0.50;;;9.60;85.20;;;;;;5113633;28;20396;-74
2024/04/10 04:57:26;;;;;;;0.35;0.35;;;9.60;85.20;;;;;;5095218;28;20039;-74
2024/04/10 04:59:51;;;;;;;0.98;0.45;;;9.60;85.20;;;;;;5114086;28;20067;-74
2024/04/10 05:02:17;;;;;;;1.13;0.43;;;9.50;85.30;;;;;;5078319;28;20046;-74
2024/04/10 05:04:59;;;;;;;1.00;0.50;;;9.50;85.20;;;;;;5113960;28;20125;-74
2024/04/10 05:07:25;;;;;;;0.40;0.40;;;9.50;85.30;;;;;;5113465;28;20036;-74
2024/04/10 05:09:51;;;;;;;1.13;0.75;;;9.50;85.30;;;;;;5113427;28;20035;-73
2024/04/10 05:12:17;;;;;;;1.08;0.50;;;9.60;85.40;;;;;;5113023;28;20043;-73
2024/04/10 05:14:51;;;;;;;2.42;0.57;;;9.60;85.40;;;;;;5077280;28;20044;-73
2024/04/10 05:17:18;;;;;;;1.85;0.40;;;9.50;85.30;;;;;;5112895;28;20040;-73
2024/04/10 05:19:44;;;;;;;0.60;0.50;;;9.50;85.40;;;;;;5094940;28;20051;-73
2024/04/10 05:22:10;;;;;;;1.05;0.50;;;9.50;85.30;;;;;;5094744;28;20052;-74
2024/04/10 05:24:36;;;;;;;2.25;0.80;;;9.60;85.40;;;;;;5095084;28;20458;-73
2024/04/10 05:27:04;;;;;;;0.52;0.38;;;9.60;85.40;;;;;;5095631;28;20035;-73
2024/04/10 05:29:30;;;;;;;0.85;0.40;;;9.60;85.40;;;;;;5094914;28;20173;-73
2024/04/10 05:31:55;;;;;;;0.45;0.32;;;9.60;85.40;;;;;;5112961;28;20082;-74
2024/04/10 05:34:21;;;;;;;0.63;0.63;;;9.60;85.30;;;;;;5112881;28;20048;-73
2024/04/10 05:36:46;;;;;;;0.75;0.55;;;9.60;86.00;;;;;;5094707;28;20058;-73
2024/04/10 05:39:21;;;;;;;0.20;0.20;;;9.70;85.40;;;;;;5095093;28;20047;-73
2024/04/10 05:41:48;;;;;;;1.45;0.50;;;9.60;85.40;;;;;;5095032;28;20135;-73
2024/04/10 05:44:13;;;;;;;0.95;0.50;;;9.70;85.40;;;;;;5112636;28;20054;-73
2024/04/10 05:46:39;;;;;;;0.85;0.43;;;9.70;85.40;;;;;;5077690;28;20473;-73
2024/04/10 05:49:06;;;;;;;0.68;0.35;;;9.60;85.30;;;;;;5077683;28;20118;-73
2024/04/10 05:51:32;;;;;;;0.98;0.40;;;9.60;85.30;;;;;;5112820;28;20043;-73
2024/04/10 05:53:58;;;;;;;1.27;0.40;;;9.70;85.40;;;;;;5112614;28;20126;-74
2024/04/10 05:56:25;;;;;;;0.82;0.50;;;9.70;85.40;;;;;;5112503;28;20512;-73
2024/04/10 05:58:51;;;;;;;1.98;0.68;;;9.70;85.40;;;;;;5094520;28;20069;-73
2024/04/10 06:01:16;;;;;;;0.88;0.40;;;9.70;85.40;;;;;;5113172;28;20040;-74
2024/04/10 06:03:45;;;;;;;0.57;0.40;;;9.70;85.40;;;;;;5112647;28;20110;-73
2024/04/10 06:06:12;;;;;;;1.48;0.40;;;9.70;85.40;;;;;;5075605;28;20036;-73
2024/04/10 06:08:39;;;;;;;0.40;0.40;;;9.70;85.30;;;;;;5077910;28;20438;-73
2024/04/10 06:11:05;;;;;;;1.85;0.50;;;9.80;85.40;;;;;;5112510;28;20557;-73
2024/04/10 06:13:32;;;;;;;3.03;0.52;;;9.80;85.30;;;;;;5112198;28;20067;-73
2024/04/10 06:16:01;;;;;;;0.90;0.40;;;9.80;85.20;;;;;;5112681;28;20039;-73
2024/04/10 06:18:27;;;;;;;1.02;0.60;;;9.90;85.30;;;;;;5092921;28;20040;-73
2024/04/10 06:21:02;;;;;;;1.50;0.63;;;9.90;85.20;;;;;;5112842;28;20062;-73
2024/04/10 06:23:29;;;;;;;1.05;0.60;;;9.90;85.20;;;;;;5092525;28;20412;-73
2024/04/10 06:25:54;;;;;;;1.45;0.60;;;9.90;85.10;;;;;;5114549;28;20035;-74
2024/04/10 06:28:20;;;;;;;0.88;0.45;;;9.90;85.00;;;;;;5116405;28;20086;-73
2024/04/10 06:30:46;;;;;;;1.63;0.60;;;10.00;84.90;;;;;;5097480;28;20050;-75
2024/04/10 06:33:15;;;;;;;1.60;0.60;;;10.00;84.90;;;;;;5116428;28;20054;-73
2024/04/10 06:35:40;;;;;;;0.80;0.50;;;10.10;84.90;;;;;;5097688;28;20082;-73
2024/04/10 06:38:07;;;;;;;0.85;0.45;;;10.10;84.80;;;;;;5097333;28;20078;-73
2024/04/10 06:40:33;;;;;;;2.17;0.60;;;10.10;84.70;;;;;;5097554;28;20051;-73
2024/04/10 06:42:58;;;;;;;1.55;0.55;;;10.20;84.60;;;;;;5115637;28;20058;-73
2024/04/10 06:45:24;;;;;;;1.08;0.50;;;10.30;84.50;;;;;;5097320;28;20044;-73
2024/04/10 06:47:50;;;;;;;1.55;0.63;;;10.30;84.40;;;;;;5097655;28;20039;-73
2024/04/10 06:50:15;;;;;;;1.85;0.70;;;10.20;84.40;;;;;;5097464;28;20378;-73
2024/04/10 06:52:41;;;;;;;2.17;0.60;;;10.40;84.50;;;;;;5097946;28;20482;-73
2024/04/10 06:55:07;;;;;;;1.52;0.70;;;10.30;84.40;;;;;;5115973;28;20032;-74
2024/04/10 06:57:33;;;;;;;2.47;0.90;;;10.40;84.40;;;;;;5097164;28;20416;-74
2024/04/10 07:00:02;;;;;;;1.65;0.68;;;10.40;84.30;;;;;;5095854;28;20213;-73
2024/04/10 07:02:29;;;;;;;1.42;0.70;;;10.40;84.30;;;;;;5115970;28;20473;-74
2024/04/10 07:04:54;;;;;;;1.77;0.60;;;10.40;84.30;;;;;;5097692;28;20047;-73
2024/04/10 07:07:20;;;;;;;1.50;0.60;;;10.40;84.20;;;;;;5097026;28;20043;-74
2024/04/10 07:09:46;;;;;;;1.02;0.70;;;10.40;84.30;;;;;;5063381;28;20124;-73
2024/04/10 07:12:12;;;;;;;0.68;0.50;;;10.50;84.20;;;;;;5115700;28;20122;-73
2024/04/10 07:14:40;;;;;;;1.60;0.70;;;10.60;84.10;;;;;;5097138;28;20120;-73
2024/04/10 07:17:05;;;;;;;1.38;0.60;;;10.60;84.10;;;;;;5115567;28;20496;-74
2024/04/10 07:19:34;;;;;;;0.73;0.50;;;10.60;84.10;;;;;;5096996;28;20132;-73
2024/04/10 07:22:04;;;;;;;0.77;0.55;;;10.70;84.10;;;;;;5115180;28;20043;-73
2024/04/10 07:24:29;;;;;;;0.68;0.50;;;10.70;84.00;;;;;;5115145;28;20044;-73
2024/04/10 07:26:55;;;;;;;2.08;0.60;;;10.80;84.00;;;;;;5115054;28;20401;-74
2024/04/10 07:29:21;;;;;;;0.52;0.50;;;10.80;83.90;;;;;;5097148;28;20036;-73
2024/04/10 07:31:47;;;;;;;1.80;0.60;;;10.90;83.90;;;;;;5114859;28;20040;-74
2024/04/10 07:34:14;;;;;;;1.00;0.52;;;10.90;83.80;;;;;;5114704;28;20079;-73
2024/04/10 07:36:41;;;;;;;1.00;0.60;;;10.80;83.50;;;;;;5079495;28;20503;-73
2024/04/10 07:39:08;;;;;;;1.80;0.60;;;11.00;83.70;;;;;;5114908;28;20039;-73
2024/04/10 07:41:34;;;;;;;1.08;0.47;;;11.00;83.70;;;;;;5096538;28;20046;-73
2024/04/10 07:44:00;;;;;;;1.05;0.60;;;10.90;83.60;;;;;;5114502;28;20039;-74
2024/04/10 07:46:26;;;;;;;0.63;0.47;;;11.00;83.70;;;;;;5096386;28;20036;-73
2024/04/10 07:48:55;;;;;;;0.85;0.50;;;11.00;83.80;;;;;;5114664;28;20472;-73
2024/04/10 07:51:21;;;;;;;0.90;0.60;;;11.00;83.80;;;;;;5113115;28;20143;-73
2024/04/10 07:53:48;;;;;;;1.05;0.45;;;10.90;83.70;;;;;;5079714;28;20051;-73
2024/04/10 07:56:14;;;;;;;2.00;0.70;;;10.90;83.70;;;;;;5097000;28;20171;-73
2024/04/10 07:58:40;;;;;;;2.05;0.60;;;11.10;83.80;;;;;;5079422;28;20497;-74
2024/04/10 08:01:06;;;;;;;0.50;0.50;;;11.00;83.60;;;;;;5096945;28;20389;-73
2024/04/10 08:03:33;;;;;;;2.05;0.70;;;11.10;83.60;;;;;;5114838;28;20046;-73
2024/04/10 08:06:03;;;;;;;0.60;0.50;;;11.20;83.50;;;;;;5096118;28;20047;-73
2024/04/10 08:08:30;;;;;;;2.65;0.65;;;11.20;83.40;;;;;;5096065;28;20036;-75
2024/04/10 08:11:07;;;;;;;1.10;0.50;;;11.30;83.30;;;;;;5114503;28;20345;-73
2024/04/10 08:13:33;;;;;;;0.60;0.40;;;11.40;83.10;;;;;;5064111;28;20050;-73
2024/04/10 08:16:04;;;;;;;1.55;0.60;;;11.60;82.90;;;;;;5114510;28;20576;-75
2024/04/10 08:18:31;;;;;;;1.27;0.60;;;11.60;82.60;;;;;;5063266;28;20484;-75
2024/04/10 08:21:06;;;;;;;0.63;0.60;;;11.80;82.50;;;;;;5095979;28;20035;-73
2024/04/10 08:23:34;;;;;;;1.33;0.52;;;11.90;82.10;;;;;;5095856;28;20051;-73
2024/04/10 08:26:08;;;;;;;0.57;0.50;;;12.10;81.90;;;;;;5095950;28;20063;-73
2024/04/10 08:28:34;;;;;;;1.88;0.65;;;12.10;81.50;;;;;;5095881;28;20408;-72
2024/04/10 08:31:00;;;;;;;0.93;0.57;;;12.20;81.70;;;;;;5113931;28;20043;-74
2024/04/10 08:33:27;;;;;;;1.55;0.57;;;12.30;81.50;;;;;;5114301;28;20130;-74
2024/04/10 08:35:56;;;;;;;1.17;0.57;;;12.30;81.40;;;;;;5079085;28;20135;-73
2024/04/10 08:38:22;;;;;;;0.82;0.60;;;12.20;81.50;;;;;;5113854;28;20043;-75
2024/04/10 08:40:51;;;;;;;0.65;0.60;;;12.30;81.80;;;;;;5095587;28;20471;-75
2024/04/10 08:43:20;;;;;;;2.25;0.57;;;12.40;81.50;;;;;;5095582;28;20043;-74
2024/04/10 08:45:47;;;;;;;1.67;0.65;;;12.60;81.10;;;;;;5095859;28;20393;-75
2024/04/10 08:48:21;;;;;;;1.08;0.60;;;12.70;80.90;;;;;;5096421;28;20097;-75
2024/04/10 08:50:50;;;;;;;1.38;0.60;;;12.80;80.70;;;;;;5113969;28;20427;-75
2024/04/10 08:53:28;;;;;;;0.60;0.50;;;12.60;80.70;;;;;;5082714;28;20085;-76
2024/04/10 08:55:56;;;;;;;4.90;0.60;;;12.50;80.80;;;;;;5035869;28;20546;-75
2024/04/10 08:58:22;;;;;;;1.30;0.65;;;12.50;81.30;;;;;;5035825;28;20051;-75
2024/04/10 09:00:47;;;;;;;1.52;0.70;;;12.60;81.10;;;;;;5034684;28;20056;-74
2024/04/10 09:03:14;;;;;;;0.63;0.57;;;12.60;80.90;;;;;;5034729;28;20045;-75
2024/04/10 09:05:40;;;;;;;3.10;0.77;;;12.60;81.20;;;;;;5050985;28;20048;-74
2024/04/10 09:08:07;;;;;;;1.33;0.70;;;12.70;81.10;;;;;;5051457;28;20036;-75
2024/04/10 09:10:33;;;;;;;2.90;0.93;;;13.00;80.90;;;;;;5033994;28;20045;-74
2024/04/10 09:13:09;;;;;;;0.80;0.70;;;13.00;80.50;;;;;;5051180;28;20056;-75
2024/04/10 09:15:36;;;;;;;2.42;0.82;;;13.10;80.80;;;;;;5051345;28;20067;-75
2024/04/10 09:18:03;;;;;;;3.58;0.90;;;13.30;80.00;;;;;;5034530;28;20053;-74
2024/04/10 09:20:29;;;;;;;1.13;0.63;;;13.50;79.70;;;;;;5033928;28;20041;-74
2024/04/10 09:23:04;;;;;;;1.67;0.70;;;13.60;79.40;;;;;;5051022;28;20495;-75
2024/04/10 09:25:32;;;;;;;2.10;0.82;;;13.70;78.90;;;;;;5033962;28;20048;-72
2024/04/10 09:28:00;;;;;;;3.35;1.13;;;13.80;78.90;;;;;;5091099;28;20119;-74
2024/04/10 09:30:25;;;;;;;1.58;0.88;;;13.80;78.80;;;;;;5113793;28;20040;-74
2024/04/10 09:32:53;;;;;;;2.72;0.90;;;13.90;78.60;;;;;;5094636;28;20043;-74
2024/04/10 09:35:21;;;;;;;1.38;0.73;;;13.80;78.60;;;;;;5078250;28;20039;-73
2024/04/10 09:37:49;;;;;;;2.08;0.82;;;13.90;78.60;;;;;;5113219;28;20092;-73
2024/04/10 09:40:19;;;;;;;2.60;1.00;;;13.90;78.60;;;;;;5113012;28;20077;-74
2024/04/10 09:42:48;;;;;;;2.35;0.82;;;14.00;78.40;;;;;;5078339;28;20092;-73
2024/04/10 09:45:17;;;;;;;1.33;0.70;;;14.00;78.20;;;;;;5112740;28;20482;-73
2024/04/10 09:47:44;;;;;;;1.20;0.88;;;14.00;78.20;;;;;;5112661;28;20527;-74
2024/04/10 09:50:16;;;;;;;1.60;0.65;;;14.00;78.20;;;;;;5077413;28;20104;-74
2024/04/10 09:52:45;;;;;;;2.35;1.17;;;13.90;78.60;;;;;;5094941;28;20046;-72
2024/04/10 09:55:13;;;;;;;1.02;0.70;;;13.80;78.60;;;;;;5060958;28;20126;-73
2024/04/10 09:57:39;;;;;;;1.33;0.73;;;13.80;78.60;;;;;;5112582;28;20126;-72
2024/04/10 10:00:08;;;;;;;1.33;0.77;;;13.90;78.70;;;;;;5093989;28;20047;-73
2024/04/10 10:02:34;;;;;;;1.40;0.80;;;14.00;78.50;;;;;;5112475;28;20063;-73
2024/04/10 10:04:59;;;;;;;2.03;0.82;;;14.10;78.30;;;;;;5094272;28;20120;-72
2024/04/10 10:07:25;;;;;;;2.10;0.60;;;14.20;78.10;;;;;;5112625;28;20126;-72
2024/04/10 10:10:03;;;;;;;1.52;0.80;;;14.10;77.90;;;;;;5112368;28;20075;-72
2024/04/10 10:12:29;;;;;;;1.50;0.57;;;14.20;77.80;;;;;;5112851;28;20133;-73
2024/04/10 10:15:08;;;;;;;1.40;0.73;;;14.20;77.80;;;;;;5077379;28;20043;-72
2024/04/10 10:17:34;;;;;;;1.27;0.60;;;14.00;77.90;;;;;;5112663;28;20045;-72
2024/04/10 10:19:59;;;;;;;2.50;0.60;;;13.90;78.20;;;;;;5112245;28;20039;-72
2024/04/10 10:22:25;;;;;;;1.77;0.52;;;14.00;78.30;;;;;;5112703;28;20048;-73
2024/04/10 10:25:13;;;;;;;1.27;0.52;;;14.00;78.10;;;;;;5094442;28;20047;-74
2024/04/10 10:27:41;;;;;;;1.27;0.60;;;14.10;77.80;;;;;;5092353;28;20477;-73
2024/04/10 10:30:07;;;;;;;0.82;0.55;;;14.10;77.70;;;;;;5112908;28;20071;-74
2024/04/10 10:32:33;;;;;;;1.10;0.50;;;14.00;77.60;;;;;;5093960;28;20044;-74
2024/04/10 10:35:08;;;;;;;0.73;0.50;;;14.00;77.50;;;;;;5111980;28;20044;-72
2024/04/10 10:37:34;;;;;;;1.00;0.50;;;14.10;77.40;;;;;;5093757;28;20040;-73
2024/04/10 10:40:01;;;;;;;1.75;0.60;;;14.20;77.30;;;;;;5112132;28;20042;-73
2024/04/10 10:42:26;;;;;;;0.50;0.40;;;14.10;77.10;;;;;;5112308;28;20044;-74
2024/04/10 10:45:04;;;;;;;0.55;0.40;;;14.10;77.10;;;;;;5112458;28;20442;-74
2024/04/10 10:47:37;;;;;;;0.88;0.40;;;14.10;76.80;;;;;;5092918;28;20058;-75
2024/04/10 10:50:04;;;;;;;1.27;0.80;;;14.20;76.70;;;;;;5093760;28;20485;-74
2024/04/10 10:52:31;;;;;;;0.35;0.35;;;14.20;76.60;;;;;;5112072;28;20039;-72
2024/04/10 10:54:57;;;;;;;2.45;0.50;;;14.20;76.40;;;;;;5111714;28;20036;-75
2024/04/10 10:57:23;;;;;;;1.67;0.57;;;14.10;76.20;;;;;;5112342;28;20123;-74
2024/04/10 10:59:48;;;;;;;0.98;0.40;;;14.20;76.10;;;;;;5094083;28;20101;-74
2024/04/10 11:02:15;;;;;;;1.42;0.50;;;14.10;76.20;;;;;;5112366;28;20027;-74
2024/04/10 11:04:41;;;;;;;1.35;0.50;;;14.10;76.20;;;;;;5111791;28;20036;-72
2024/04/10 11:07:07;;;;;;;0.35;0.35;;;14.20;76.00;;;;;;5111797;28;20122;-72
2024/04/10 11:09:33;;;;;;;1.35;0.65;;;14.20;75.80;;;;;;5112138;28;20438;-72
2024/04/10 11:12:01;;;;;;;1.00;0.50;;;14.30;75.70;;;;;;5112196;28;20074;-71
2024/04/10 11:14:27;;;;;;;0.80;0.50;;;14.20;75.30;;;;;;5115086;28;20035;-72
2024/04/10 11:17:00;;;;;;;1.38;0.43;;;14.20;75.60;;;;;;5096912;28;20093;-72
2024/04/10 11:19:27;;;;;;;0.55;0.30;;;14.30;75.40;;;;;;5097238;28;20042;-72
2024/04/10 11:21:52;;;;;;;1.42;0.60;;;14.50;75.20;;;;;;5115624;28;20497;-72
2024/04/10 11:24:20;;;;;;;0.73;0.50;;;14.60;74.70;;;;;;5097081;28;20051;-73
2024/04/10 11:26:46;;;;;;;1.02;0.50;;;14.80;74.40;;;;;;5115244;28;20032;-72
2024/04/10 11:29:11;;;;;;;0.50;0.30;;;14.70;74.00;;;;;;5115304;28;20042;-72
2024/04/10 11:31:37;;;;;;;0.43;0.30;;;14.70;73.90;;;;;;5114855;28;20027;-72
2024/04/10 11:34:03;;;;;;;0.50;0.30;;;14.80;73.90;;;;;;5115197;28;20039;-72
2024/04/10 11:36:29;;;;;;;1.65;0.52;;;14.90;73.70;;;;;;5096668;28;20039;-72
2024/04/10 11:38:55;;;;;;;0.30;0.30;;;14.90;73.40;;;;;;5115134;28;20089;-72
2024/04/10 11:41:20;;;;;;;2.00;0.40;;;15.00;73.40;;;;;;5096306;28;20075;-73
2024/04/10 11:43:46;;;;;;;0.75;0.35;;;15.00;73.20;;;;;;5115360;28;20032;-73
2024/04/10 11:46:12;;;;;;;1.65;0.50;;;14.90;73.10;;;;;;5096366;28;20036;-72
2024/04/10 11:48:38;;;;;;;1.13;0.40;;;14.70;73.30;;;;;;5114684;28;20547;-72
2024/04/10 11:51:05;;;;;;;0.60;0.40;;;14.70;73.70;;;;;;5096073;28;20476;-73
2024/04/10 11:53:32;;;;;;;1.98;0.40;;;14.70;73.60;;;;;;5114402;28;20497;-72
2024/04/10 11:55:58;;;;;;;1.10;0.50;;;14.80;73.40;;;;;;5096370;28;20043;-73
2024/04/10 11:58:23;;;;;;;1.88;0.50;;;14.90;73.10;;;;;;5114380;28;20051;-72
2024/04/10 12:00:50;;;;;;;0.60;0.40;;;14.90;72.80;;;;;;5114689;28;20067;-72
2024/04/10 12:03:16;;;;;;;0.50;0.30;;;14.90;72.80;;;;;;5114898;28;20086;-72
2024/04/10 12:05:41;;;;;;;0.40;0.40;;;15.00;72.60;;;;;;5114650;28;20416;-73
2024/04/10 12:08:07;;;;;;;1.42;0.40;;;15.10;72.40;;;;;;5114725;28;20092;-72
2024/04/10 12:10:33;;;;;;;0.55;0.30;;;15.10;72.30;;;;;;5114253;28;20070;-73
2024/04/10 12:12:59;;;;;;;0.65;0.40;;;15.10;72.70;;;;;;5096236;28;20331;-73
2024/04/10 12:15:25;;;;;;;0.38;0.30;;;15.00;72.20;;;;;;5114948;28;20180;-74
2024/04/10 12:17:52;;;;;;;0.32;0.30;;;14.90;72.30;;;;;;5096285;28;20047;-75
2024/04/10 12:20:20;;;;;;;0.63;0.45;;;14.90;72.40;;;;;;5079022;28;20035;-75
2024/04/10 12:22:46;;;;;;;1.70;0.50;;;14.90;72.50;;;;;;5093788;28;20145;-74
2024/04/10 12:25:11;;;;;;;1.38;0.47;;;14.90;72.40;;;;;;5096290;28;20191;-74
2024/04/10 12:27:37;;;;;;;0.85;0.50;;;14.90;72.20;;;;;;5114051;28;20035;-73
2024/04/10 12:30:06;;;;;;;2.20;0.50;;;15.00;71.90;;;;;;5114451;28;20039;-73
2024/04/10 12:32:32;;;;;;;2.67;0.40;;;14.90;71.90;;;;;;5114193;28;20071;-72
2024/04/10 12:38:02;;;;;;;1.00;0.32;;;14.90;71.80;;;;;;5114026;28;20100;-74
2024/04/10 12:40:21;;;;;;;0.50;0.30;;;14.80;71.90;;;;;;5113856;28;20045;-72
2024/04/10 12:42:46;;;;;;;1.30;0.30;;;14.90;71.80;;;;;;5113761;28;20140;-73
2024/04/10 12:45:13;;;;;;;0.88;0.40;;;15.10;71.70;;;;;;5095443;28;20097;-73
2024/04/10 12:47:39;;;;;;;0.93;0.30;;;15.10;71.20;;;;;;5095840;28;20045;-73
2024/04/10 12:50:07;;;;;;;1.55;0.43;;;15.20;71.10;;;;;;5095418;28;20141;-73
2024/04/10 12:52:33;;;;;;;0.73;0.35;;;15.20;70.90;;;;;;5095714;28;20069;-73
2024/04/10 12:54:59;;;;;;;0.70;0.50;;;15.20;71.00;;;;;;5096091;28;20139;-75
2024/04/10 12:57:25;;;;;;;0.40;0.25;;;15.30;70.80;;;;;;5095242;28;20100;-74
2024/04/10 12:59:52;;;;;;;0.98;0.30;;;15.10;70.70;;;;;;5095551;28;20153;-73
2024/04/10 13:02:18;;;;;;;1.00;0.40;;;15.10;71.10;;;;;;5113334;28;20040;-73